sensor_id;sensor_type;location;lat;lon;timestamp;temperature;humidity
13808;DHT22;40769;51.512;5.494;2023-07-20T00:01:23;20.00;99.90
13808;DHT22;40769;51.512;5.494;2023-07-20T00:03:49;20.00;99.90
13808;DHT22;40769;51.512;5.494;2023-07-20T00:06:21;20.00;99.90
13808;DHT22;40769;51.512;5.494;2023-07-20T00:08:47;20.00;99.90
13808;DHT22;40769;51.512;5.494;2023-07-20T00:11:12;20.00;99.90
13808;DHT22;40769;51.512;5.494;2023-07-20T00:13:39;19.90;99.90
13808;DHT22;40769;51.512;5.494;2023-07-20T00:16:05;19.90;99.90
13808;DHT22;40769;51.512;5.494;2023-07-20T00:18:31;19.90;99.90
13808;DHT22;40769;51.512;5.494;2023-07-20T00:20:57;19.80;99.90
13808;DHT22;40769;51.512;5.494;2023-07-20T00:23:22;19.80;99.90
13808;DHT22;40769;51.512;5.494;2023-07-20T00:25:48;19.70;99.90
13808;DHT22;40769;51.512;5.494;2023-07-20T00:28:20;19.70;99.90
13808;DHT22;40769;51.512;5.494;2023-07-20T00:30:46;19.60;99.90
13808;DHT22;40769;51.512;5.494;2023-07-20T00:33:12;19.60;99.90
13808;DHT22;40769;51.512;5.494;2023-07-20T00:35:38;19.50;99.90
13808;DHT22;40769;51.512;5.494;2023-07-20T00:38:05;19.50;99.90
13808;DHT22;40769;51.512;5.494;2023-07-20T00:40:41;19.40;99.90
13808;DHT22;40769;51.512;5.494;2023-07-20T00:43:07;19.40;99.90
13808;DHT22;40769;51.512;5.494;2023-07-20T00:45:33;19.30;99.90
13808;DHT22;40769;51.512;5.494;2023-07-20T00:48:01;19.30;99.90
13808;DHT22;40769;51.512;5.494;2023-07-20T00:50:28;19.30;99.90
13808;DHT22;40769;51.512;5.494;2023-07-20T00:52:54;19.30;99.90
13808;DHT22;40769;51.512;5.494;2023-07-20T00:55:21;19.30;99.90
13808;DHT22;40769;51.512;5.494;2023-07-20T00:57:47;19.20;99.90
13808;DHT22;40769;51.512;5.494;2023-07-20T01:00:13;19.20;99.90
13808;DHT22;40769;51.512;5.494;2023-07-20T01:02:40;19.30;99.90
13808;DHT22;40769;51.512;5.494;2023-07-20T01:05:06;19.20;99.90
13808;DHT22;40769;51.512;5.494;2023-07-20T01:07:37;19.20;99.90
13808;DHT22;40769;51.512;5.494;2023-07-20T01:10:20;19.10;99.90
13808;DHT22;40769;51.512;5.494;2023-07-20T01:12:55;19.10;99.90
13808;DHT22;40769;51.512;5.494;2023-07-20T01:15:22;19.10;99.90
13808;DHT22;40769;51.512;5.494;2023-07-20T01:17:47;19.10;99.90
13808;DHT22;40769;51.512;5.494;2023-07-20T01:20:18;19.00;99.90
13808;DHT22;40769;51.512;5.494;2023-07-20T01:23:06;19.00;99.90
13808;DHT22;40769;51.512;5.494;2023-07-20T01:25:48;19.00;99.90
13808;DHT22;40769;51.512;5.494;2023-07-20T01:31:24;18.90;99.90
13808;DHT22;40769;51.512;5.494;2023-07-20T01:33:53;18.80;99.90
13808;DHT22;40769;51.512;5.494;2023-07-20T01:36:19;18.80;99.90
13808;DHT22;40769;51.512;5.494;2023-07-20T01:38:47;18.70;99.90
13808;DHT22;40769;51.512;5.494;2023-07-20T01:41:14;18.70;99.90
13808;DHT22;40769;51.512;5.494;2023-07-20T01:43:40;18.70;99.90
13808;DHT22;40769;51.512;5.494;2023-07-20T01:46:06;18.70;99.90
13808;DHT22;40769;51.512;5.494;2023-07-20T01:48:31;18.70;99.90
13808;DHT22;40769;51.512;5.494;2023-07-20T01:50:57;18.80;99.90
13808;DHT22;40769;51.512;5.494;2023-07-20T01:53:23;18.80;99.90
13808;DHT22;40769;51.512;5.494;2023-07-20T01:55:48;18.80;99.90
13808;DHT22;40769;51.512;5.494;2023-07-20T01:58:15;18.80;99.90
13808;DHT22;40769;51.512;5.494;2023-07-20T02:00:43;18.90;99.90
13808;DHT22;40769;51.512;5.494;2023-07-20T02:03:09;18.90;99.90
13808;DHT22;40769;51.512;5.494;2023-07-20T02:05:37;18.90;99.90
13808;DHT22;40769;51.512;5.494;2023-07-20T02:08:03;18.90;99.90
13808;DHT22;40769;51.512;5.494;2023-07-20T02:10:29;19.00;99.90
13808;DHT22;40769;51.512;5.494;2023-07-20T02:12:54;19.00;99.90
13808;DHT22;40769;51.512;5.494;2023-07-20T02:15:21;19.00;99.90
13808;DHT22;40769;51.512;5.494;2023-07-20T02:17:47;19.10;99.90
13808;DHT22;40769;51.512;5.494;2023-07-20T02:20:13;19.00;99.90
13808;DHT22;40769;51.512;5.494;2023-07-20T02:22:39;19.00;99.90
13808;DHT22;40769;51.512;5.494;2023-07-20T02:25:06;19.00;99.90
13808;DHT22;40769;51.512;5.494;2023-07-20T02:27:33;19.00;99.90
13808;DHT22;40769;51.512;5.494;2023-07-20T02:29:59;19.10;99.90
13808;DHT22;40769;51.512;5.494;2023-07-20T02:32:25;19.10;99.90
13808;DHT22;40769;51.512;5.494;2023-07-20T02:34:51;19.10;99.90
13808;DHT22;40769;51.512;5.494;2023-07-20T02:37:17;19.10;99.90
13808;DHT22;40769;51.512;5.494;2023-07-20T02:39:43;19.10;99.90
13808;DHT22;40769;51.512;5.494;2023-07-20T02:42:09;19.10;99.90
13808;DHT22;40769;51.512;5.494;2023-07-20T02:44:34;19.10;99.90
13808;DHT22;40769;51.512;5.494;2023-07-20T02:47:00;19.10;99.90
13808;DHT22;40769;51.512;5.494;2023-07-20T02:49:26;19.10;99.90
13808;DHT22;40769;51.512;5.494;2023-07-20T02:51:52;19.10;99.90
13808;DHT22;40769;51.512;5.494;2023-07-20T02:54:18;19.00;99.90
13808;DHT22;40769;51.512;5.494;2023-07-20T02:56:44;19.10;99.90
13808;DHT22;40769;51.512;5.494;2023-07-20T02:59:10;19.10;99.90
13808;DHT22;40769;51.512;5.494;2023-07-20T03:01:36;19.10;99.90
13808;DHT22;40769;51.512;5.494;2023-07-20T03:04:01;19.10;99.90
13808;DHT22;40769;51.512;5.494;2023-07-20T03:06:28;20.00;99.90
13808;DHT22;40769;51.512;5.494;2023-07-20T03:08:53;19.10;99.90
13808;DHT22;40769;51.512;5.494;2023-07-20T03:11:20;19.10;99.90
13808;DHT22;40769;51.512;5.494;2023-07-20T03:13:48;19.00;99.90
13808;DHT22;40769;51.512;5.494;2023-07-20T03:16:17;19.10;99.90
13808;DHT22;40769;51.512;5.494;2023-07-20T03:18:43;19.10;99.90
13808;DHT22;40769;51.512;5.494;2023-07-20T03:21:10;19.10;99.90
13808;DHT22;40769;51.512;5.494;2023-07-20T03:23:39;19.10;99.90
13808;DHT22;40769;51.512;5.494;2023-07-20T03:26:05;18.90;99.90
13808;DHT22;40769;51.512;5.494;2023-07-20T03:28:34;19.00;99.90
13808;DHT22;40769;51.512;5.494;2023-07-20T03:31:00;19.00;99.90
13808;DHT22;40769;51.512;5.494;2023-07-20T03:33:26;18.90;99.90
13808;DHT22;40769;51.512;5.494;2023-07-20T03:35:56;18.90;99.90
13808;DHT22;40769;51.512;5.494;2023-07-20T03:38:22;18.80;99.90
13808;DHT22;40769;51.512;5.494;2023-07-20T03:40:52;18.80;99.90
13808;DHT22;40769;51.512;5.494;2023-07-20T03:43:17;18.80;99.90
13808;DHT22;40769;51.512;5.494;2023-07-20T03:45:43;18.80;99.90
13808;DHT22;40769;51.512;5.494;2023-07-20T03:48:09;18.80;99.90
13808;DHT22;40769;51.512;5.494;2023-07-20T03:50:35;18.80;99.90
13808;DHT22;40769;51.512;5.494;2023-07-20T03:53:07;18.80;99.90
13808;DHT22;40769;51.512;5.494;2023-07-20T03:55:33;18.80;99.90
13808;DHT22;40769;51.512;5.494;2023-07-20T03:57:58;18.80;99.90
13808;DHT22;40769;51.512;5.494;2023-07-20T04:00:24;18.80;99.90
13808;DHT22;40769;51.512;5.494;2023-07-20T04:02:50;18.80;99.90
13808;DHT22;40769;51.512;5.494;2023-07-20T04:05:16;18.70;99.90
13808;DHT22;40769;51.512;5.494;2023-07-20T04:07:41;18.70;99.90
13808;DHT22;40769;51.512;5.494;2023-07-20T04:10:07;18.70;99.90
13808;DHT22;40769;51.512;5.494;2023-07-20T04:12:33;18.60;99.90
13808;DHT22;40769;51.512;5.494;2023-07-20T04:14:59;18.60;99.90
13808;DHT22;40769;51.512;5.494;2023-07-20T04:17:25;18.60;99.90
13808;DHT22;40769;51.512;5.494;2023-07-20T04:19:50;18.60;99.90
13808;DHT22;40769;51.512;5.494;2023-07-20T04:22:16;18.60;99.90
13808;DHT22;40769;51.512;5.494;2023-07-20T04:24:48;18.50;99.90
13808;DHT22;40769;51.512;5.494;2023-07-20T04:27:18;18.50;99.90
13808;DHT22;40769;51.512;5.494;2023-07-20T04:29:44;18.50;99.90
13808;DHT22;40769;51.512;5.494;2023-07-20T04:32:10;18.40;99.90
13808;DHT22;40769;51.512;5.494;2023-07-20T04:34:35;18.40;99.90
13808;DHT22;40769;51.512;5.494;2023-07-20T04:37:04;18.30;99.90
13808;DHT22;40769;51.512;5.494;2023-07-20T04:39:29;18.30;99.90
13808;DHT22;40769;51.512;5.494;2023-07-20T04:41:56;18.20;99.90
13808;DHT22;40769;51.512;5.494;2023-07-20T04:44:22;18.20;99.90
13808;DHT22;40769;51.512;5.494;2023-07-20T04:46:47;18.60;99.90
13808;DHT22;40769;51.512;5.494;2023-07-20T04:49:13;18.10;99.90
13808;DHT22;40769;51.512;5.494;2023-07-20T04:51:40;18.20;99.90
13808;DHT22;40769;51.512;5.494;2023-07-20T04:54:05;18.10;99.90
13808;DHT22;40769;51.512;5.494;2023-07-20T04:56:34;18.10;99.90
13808;DHT22;40769;51.512;5.494;2023-07-20T04:59:00;18.10;99.90
13808;DHT22;40769;51.512;5.494;2023-07-20T05:01:26;18.00;99.90
13808;DHT22;40769;51.512;5.494;2023-07-20T05:03:54;18.00;99.90
13808;DHT22;40769;51.512;5.494;2023-07-20T05:06:19;18.00;99.90
13808;DHT22;40769;51.512;5.494;2023-07-20T05:08:45;18.00;99.90
13808;DHT22;40769;51.512;5.494;2023-07-20T05:11:11;18.00;99.90
13808;DHT22;40769;51.512;5.494;2023-07-20T05:13:37;18.00;99.90
13808;DHT22;40769;51.512;5.494;2023-07-20T05:16:04;18.00;99.90
13808;DHT22;40769;51.512;5.494;2023-07-20T05:18:30;18.00;99.90
13808;DHT22;40769;51.512;5.494;2023-07-20T05:21:01;18.10;99.90
13808;DHT22;40769;51.512;5.494;2023-07-20T05:23:32;18.00;99.90
13808;DHT22;40769;51.512;5.494;2023-07-20T05:25:59;18.20;99.90
13808;DHT22;40769;51.512;5.494;2023-07-20T05:28:25;18.20;99.90
13808;DHT22;40769;51.512;5.494;2023-07-20T05:30:52;18.20;99.90
13808;DHT22;40769;51.512;5.494;2023-07-20T05:33:19;18.20;99.90
13808;DHT22;40769;51.512;5.494;2023-07-20T05:35:45;18.30;99.90
13808;DHT22;40769;51.512;5.494;2023-07-20T05:38:10;18.30;99.90
13808;DHT22;40769;51.512;5.494;2023-07-20T05:40:41;18.40;99.90
13808;DHT22;40769;51.512;5.494;2023-07-20T05:43:08;18.40;99.90
13808;DHT22;40769;51.512;5.494;2023-07-20T05:45:34;18.50;99.90
13808;DHT22;40769;51.512;5.494;2023-07-20T05:47:59;18.60;99.90
13808;DHT22;40769;51.512;5.494;2023-07-20T05:50:25;18.60;99.90
13808;DHT22;40769;51.512;5.494;2023-07-20T05:52:54;18.70;99.90
13808;DHT22;40769;51.512;5.494;2023-07-20T05:55:20;18.70;99.90
13808;DHT22;40769;51.512;5.494;2023-07-20T05:57:46;18.80;99.90
13808;DHT22;40769;51.512;5.494;2023-07-20T06:00:13;18.70;99.90
13808;DHT22;40769;51.512;5.494;2023-07-20T06:02:39;18.80;99.90
13808;DHT22;40769;51.512;5.494;2023-07-20T06:05:09;18.80;99.90
13808;DHT22;40769;51.512;5.494;2023-07-20T06:07:40;18.80;99.90
13808;DHT22;40769;51.512;5.494;2023-07-20T06:10:06;18.90;99.90
13808;DHT22;40769;51.512;5.494;2023-07-20T06:12:32;18.90;99.90
13808;DHT22;40769;51.512;5.494;2023-07-20T06:15:02;18.90;99.90
13808;DHT22;40769;51.512;5.494;2023-07-20T06:17:29;19.00;99.90
13808;DHT22;40769;51.512;5.494;2023-07-20T06:19:54;19.00;99.90
13808;DHT22;40769;51.512;5.494;2023-07-20T06:22:20;19.10;99.90
13808;DHT22;40769;51.512;5.494;2023-07-20T06:24:46;19.30;99.90
13808;DHT22;40769;51.512;5.494;2023-07-20T06:27:11;19.40;99.90
13808;DHT22;40769;51.512;5.494;2023-07-20T06:29:37;19.60;99.90
13808;DHT22;40769;51.512;5.494;2023-07-20T06:32:04;19.90;99.90
13808;DHT22;40769;51.512;5.494;2023-07-20T06:34:30;20.10;99.90
13808;DHT22;40769;51.512;5.494;2023-07-20T06:36:56;20.40;99.90
13808;DHT22;40769;51.512;5.494;2023-07-20T06:39:22;20.50;99.90
13808;DHT22;40769;51.512;5.494;2023-07-20T06:41:48;20.80;99.90
13808;DHT22;40769;51.512;5.494;2023-07-20T06:44:13;20.90;99.90
13808;DHT22;40769;51.512;5.494;2023-07-20T06:46:39;21.10;99.90
13808;DHT22;40769;51.512;5.494;2023-07-20T06:49:06;21.20;99.90
13808;DHT22;40769;51.512;5.494;2023-07-20T06:51:33;21.30;99.90
13808;DHT22;40769;51.512;5.494;2023-07-20T06:53:59;21.40;99.90
13808;DHT22;40769;51.512;5.494;2023-07-20T06:56:24;21.40;99.90
13808;DHT22;40769;51.512;5.494;2023-07-20T06:58:50;21.50;99.90
13808;DHT22;40769;51.512;5.494;2023-07-20T07:01:15;21.50;99.90
13808;DHT22;40769;51.512;5.494;2023-07-20T07:03:42;21.50;99.90
13808;DHT22;40769;51.512;5.494;2023-07-20T07:06:09;21.60;99.90
13808;DHT22;40769;51.512;5.494;2023-07-20T07:08:35;21.80;99.90
13808;DHT22;40769;51.512;5.494;2023-07-20T07:11:01;22.00;99.90
13808;DHT22;40769;51.512;5.494;2023-07-20T07:13:27;22.20;99.90
13808;DHT22;40769;51.512;5.494;2023-07-20T07:15:53;22.50;99.90
13808;DHT22;40769;51.512;5.494;2023-07-20T07:18:18;22.80;99.90
13808;DHT22;40769;51.512;5.494;2023-07-20T07:20:51;22.90;99.90
13808;DHT22;40769;51.512;5.494;2023-07-20T07:23:17;23.10;99.90
13808;DHT22;40769;51.512;5.494;2023-07-20T07:25:43;23.30;99.90
13808;DHT22;40769;51.512;5.494;2023-07-20T07:28:09;23.40;99.90
13808;DHT22;40769;51.512;5.494;2023-07-20T07:30:34;23.50;99.90
13808;DHT22;40769;51.512;5.494;2023-07-20T07:33:00;23.60;99.90
13808;DHT22;40769;51.512;5.494;2023-07-20T07:35:26;23.70;99.90
13808;DHT22;40769;51.512;5.494;2023-07-20T07:37:51;23.90;99.90
13808;DHT22;40769;51.512;5.494;2023-07-20T07:40:17;24.10;99.90
13808;DHT22;40769;51.512;5.494;2023-07-20T07:42:43;24.40;99.90
13808;DHT22;40769;51.512;5.494;2023-07-20T07:45:09;24.60;99.90
13808;DHT22;40769;51.512;5.494;2023-07-20T07:47:35;24.90;99.90
13808;DHT22;40769;51.512;5.494;2023-07-20T07:50:01;25.30;99.90
13808;DHT22;40769;51.512;5.494;2023-07-20T07:52:27;25.60;99.90
13808;DHT22;40769;51.512;5.494;2023-07-20T07:54:53;25.90;99.90
13808;DHT22;40769;51.512;5.494;2023-07-20T07:57:18;26.30;99.90
13808;DHT22;40769;51.512;5.494;2023-07-20T07:59:44;26.50;99.90
13808;DHT22;40769;51.512;5.494;2023-07-20T08:02:10;26.80;99.90
13808;DHT22;40769;51.512;5.494;2023-07-20T08:04:35;27.00;99.90
13808;DHT22;40769;51.512;5.494;2023-07-20T08:07:04;27.30;99.90
13808;DHT22;40769;51.512;5.494;2023-07-20T08:09:30;27.50;99.90
13808;DHT22;40769;51.512;5.494;2023-07-20T08:11:55;27.80;99.90
13808;DHT22;40769;51.512;5.494;2023-07-20T08:14:21;28.10;99.90
13808;DHT22;40769;51.512;5.494;2023-07-20T08:16:49;28.30;99.90
13808;DHT22;40769;51.512;5.494;2023-07-20T08:19:15;28.50;99.90
13808;DHT22;40769;51.512;5.494;2023-07-20T08:21:41;28.80;99.90
13808;DHT22;40769;51.512;5.494;2023-07-20T08:24:06;29.00;99.90
13808;DHT22;40769;51.512;5.494;2023-07-20T08:26:32;29.30;99.90
13808;DHT22;40769;51.512;5.494;2023-07-20T08:28:58;29.50;99.90
13808;DHT22;40769;51.512;5.494;2023-07-20T08:31:24;29.90;99.90
13808;DHT22;40769;51.512;5.494;2023-07-20T08:33:50;30.10;99.90
13808;DHT22;40769;51.512;5.494;2023-07-20T08:36:16;30.30;99.90
13808;DHT22;40769;51.512;5.494;2023-07-20T08:38:42;30.30;99.90
13808;DHT22;40769;51.512;5.494;2023-07-20T08:41:09;30.30;99.90
13808;DHT22;40769;51.512;5.494;2023-07-20T08:43:36;30.20;99.90
13808;DHT22;40769;51.512;5.494;2023-07-20T08:46:03;30.10;99.90
13808;DHT22;40769;51.512;5.494;2023-07-20T08:48:30;30.00;99.90
13808;DHT22;40769;51.512;5.494;2023-07-20T08:50:58;29.90;99.90
13808;DHT22;40769;51.512;5.494;2023-07-20T08:53:25;29.80;99.90
13808;DHT22;40769;51.512;5.494;2023-07-20T08:55:52;29.60;99.90
13808;DHT22;40769;51.512;5.494;2023-07-20T08:58:18;29.50;99.90
13808;DHT22;40769;51.512;5.494;2023-07-20T09:00:44;29.40;99.90
13808;DHT22;40769;51.512;5.494;2023-07-20T09:03:11;29.50;99.90
13808;DHT22;40769;51.512;5.494;2023-07-20T09:05:36;29.70;99.90
13808;DHT22;40769;51.512;5.494;2023-07-20T09:08:02;29.90;99.90
13808;DHT22;40769;51.512;5.494;2023-07-20T09:10:29;30.10;99.90
13808;DHT22;40769;51.512;5.494;2023-07-20T09:12:55;30.30;99.90
13808;DHT22;40769;51.512;5.494;2023-07-20T09:15:22;30.40;99.90
13808;DHT22;40769;51.512;5.494;2023-07-20T09:17:49;30.60;99.90
13808;DHT22;40769;51.512;5.494;2023-07-20T09:20:17;30.70;99.90
13808;DHT22;40769;51.512;5.494;2023-07-20T09:22:43;30.90;99.90
13808;DHT22;40769;51.512;5.494;2023-07-20T09:25:18;30.90;99.90
13808;DHT22;40769;51.512;5.494;2023-07-20T09:27:47;30.90;99.90
13808;DHT22;40769;51.512;5.494;2023-07-20T09:30:16;30.90;99.90
13808;DHT22;40769;51.512;5.494;2023-07-20T09:32:44;30.90;99.90
13808;DHT22;40769;51.512;5.494;2023-07-20T09:35:18;31.00;99.90
13808;DHT22;40769;51.512;5.494;2023-07-20T09:38:00;31.20;99.90
13808;DHT22;40769;51.512;5.494;2023-07-20T09:40:27;31.40;99.90
13808;DHT22;40769;51.512;5.494;2023-07-20T09:42:55;31.60;99.90
13808;DHT22;40769;51.512;5.494;2023-07-20T09:45:49;31.60;99.90
13808;DHT22;40769;51.512;5.494;2023-07-20T09:48:15;31.50;99.90
13808;DHT22;40769;51.512;5.494;2023-07-20T09:50:49;31.30;99.90
13808;DHT22;40769;51.512;5.494;2023-07-20T09:53:19;30.90;99.90
13808;DHT22;40769;51.512;5.494;2023-07-20T09:55:46;30.60;99.90
13808;DHT22;40769;51.512;5.494;2023-07-20T09:58:13;30.20;99.90
13808;DHT22;40769;51.512;5.494;2023-07-20T10:00:40;29.90;99.90
13808;DHT22;40769;51.512;5.494;2023-07-20T10:03:11;29.50;99.90
13808;DHT22;40769;51.512;5.494;2023-07-20T10:05:50;29.10;99.90
13808;DHT22;40769;51.512;5.494;2023-07-20T10:08:19;28.80;99.90
13808;DHT22;40769;51.512;5.494;2023-07-20T10:10:47;28.60;99.90
13808;DHT22;40769;51.512;5.494;2023-07-20T10:13:18;28.40;99.90
13808;DHT22;40769;51.512;5.494;2023-07-20T10:15:51;28.20;99.90
13808;DHT22;40769;51.512;5.494;2023-07-20T10:21:17;28.20;99.90
13808;DHT22;40769;51.512;5.494;2023-07-20T10:23:45;28.30;99.90
13808;DHT22;40769;51.512;5.494;2023-07-20T10:26:12;28.50;99.90
13808;DHT22;40769;51.512;5.494;2023-07-20T10:28:38;28.70;99.90
13808;DHT22;40769;51.512;5.494;2023-07-20T10:31:08;29.00;99.90
13808;DHT22;40769;51.512;5.494;2023-07-20T10:33:36;29.40;99.90
13808;DHT22;40769;51.512;5.494;2023-07-20T10:36:05;29.70;99.90
13808;DHT22;40769;51.512;5.494;2023-07-20T10:41:28;30.60;99.90
13808;DHT22;40769;51.512;5.494;2023-07-20T10:44:23;31.00;99.90
13808;DHT22;40769;51.512;5.494;2023-07-20T10:46:49;31.40;99.90
13808;DHT22;40769;51.512;5.494;2023-07-20T10:49:14;31.80;99.90
13808;DHT22;40769;51.512;5.494;2023-07-20T10:51:56;32.10;99.90
13808;DHT22;40769;51.512;5.494;2023-07-20T10:56:49;32.80;99.90
13808;DHT22;40769;51.512;5.494;2023-07-20T11:01:47;33.30;98.50
13808;DHT22;40769;51.512;5.494;2023-07-20T11:04:15;33.60;98.40
13808;DHT22;40769;51.512;5.494;2023-07-20T11:06:45;33.80;96.30
13808;DHT22;40769;51.512;5.494;2023-07-20T11:09:12;33.90;95.00
13808;DHT22;40769;51.512;5.494;2023-07-20T11:11:48;33.90;94.60
13808;DHT22;40769;51.512;5.494;2023-07-20T11:14:23;33.80;93.00
13808;DHT22;40769;51.512;5.494;2023-07-20T11:16:51;33.60;92.60
13808;DHT22;40769;51.512;5.494;2023-07-20T11:21:45;33.20;92.30
13808;DHT22;40769;51.512;5.494;2023-07-20T11:24:10;33.00;91.70
13808;DHT22;40769;51.512;5.494;2023-07-20T11:26:48;32.80;91.80
13808;DHT22;40769;51.512;5.494;2023-07-20T11:29:15;32.50;91.10
13808;DHT22;40769;51.512;5.494;2023-07-20T11:31:43;32.30;91.50
13808;DHT22;40769;51.512;5.494;2023-07-20T11:34:19;32.30;91.70
13808;DHT22;40769;51.512;5.494;2023-07-20T11:36:51;32.30;90.70
13808;DHT22;40769;51.512;5.494;2023-07-20T11:39:20;32.30;90.50
13808;DHT22;40769;51.512;5.494;2023-07-20T11:41:52;32.30;90.30
13808;DHT22;40769;51.512;5.494;2023-07-20T11:44:18;32.30;89.70
13808;DHT22;40769;51.512;5.494;2023-07-20T11:46:44;32.30;90.70
13808;DHT22;40769;51.512;5.494;2023-07-20T11:49:11;32.40;89.20
13808;DHT22;40769;51.512;5.494;2023-07-20T11:51:37;32.30;88.70
13808;DHT22;40769;51.512;5.494;2023-07-20T11:54:05;32.20;88.20
13808;DHT22;40769;51.512;5.494;2023-07-20T11:56:31;32.10;87.80
13808;DHT22;40769;51.512;5.494;2023-07-20T11:59:00;32.00;87.30
13808;DHT22;40769;51.512;5.494;2023-07-20T12:01:28;31.80;86.30
13808;DHT22;40769;51.512;5.494;2023-07-20T12:04:01;31.60;87.30
13808;DHT22;40769;51.512;5.494;2023-07-20T12:06:28;31.40;86.70
13808;DHT22;40769;51.512;5.494;2023-07-20T12:08:57;31.20;87.10
13808;DHT22;40769;51.512;5.494;2023-07-20T12:11:42;30.90;86.40
13808;DHT22;40769;51.512;5.494;2023-07-20T12:14:25;30.70;85.30
13808;DHT22;40769;51.512;5.494;2023-07-20T12:16:54;30.40;86.50
13808;DHT22;40769;51.512;5.494;2023-07-20T12:19:20;30.10;86.00
13808;DHT22;40769;51.512;5.494;2023-07-20T12:21:45;29.70;86.90
13808;DHT22;40769;51.512;5.494;2023-07-20T12:24:11;29.50;88.10
13808;DHT22;40769;51.512;5.494;2023-07-20T12:26:37;29.40;89.00
13808;DHT22;40769;51.512;5.494;2023-07-20T12:29:03;29.40;90.10
13808;DHT22;40769;51.512;5.494;2023-07-20T12:31:29;29.50;90.50
13808;DHT22;40769;51.512;5.494;2023-07-20T12:33:57;29.70;90.70
13808;DHT22;40769;51.512;5.494;2023-07-20T12:36:24;30.00;90.30
13808;DHT22;40769;51.512;5.494;2023-07-20T12:38:50;30.20;89.20
13808;DHT22;40769;51.512;5.494;2023-07-20T12:41:16;30.40;89.50
13808;DHT22;40769;51.512;5.494;2023-07-20T12:43:44;30.40;88.90
13808;DHT22;40769;51.512;5.494;2023-07-20T12:46:10;30.40;88.70
13808;DHT22;40769;51.512;5.494;2023-07-20T12:48:38;30.40;87.40
13808;DHT22;40769;51.512;5.494;2023-07-20T12:51:05;30.20;86.70
13808;DHT22;40769;51.512;5.494;2023-07-20T12:53:32;30.10;86.70
13808;DHT22;40769;51.512;5.494;2023-07-20T12:55:58;29.80;86.10
13808;DHT22;40769;51.512;5.494;2023-07-20T12:58:24;29.70;86.40
13808;DHT22;40769;51.512;5.494;2023-07-20T13:00:49;29.40;86.90
13808;DHT22;40769;51.512;5.494;2023-07-20T13:03:15;29.20;87.00
13808;DHT22;40769;51.512;5.494;2023-07-20T13:05:41;29.00;87.60
13808;DHT22;40769;51.512;5.494;2023-07-20T13:08:07;28.80;88.40
13808;DHT22;40769;51.512;5.494;2023-07-20T13:10:33;28.60;88.80
13808;DHT22;40769;51.512;5.494;2023-07-20T13:12:59;28.60;88.90
13808;DHT22;40769;51.512;5.494;2023-07-20T13:15:30;28.50;88.80
13808;DHT22;40769;51.512;5.494;2023-07-20T13:17:59;28.30;89.90
13808;DHT22;40769;51.512;5.494;2023-07-20T13:20:25;28.20;89.00
13808;DHT22;40769;51.512;5.494;2023-07-20T13:22:51;28.10;89.70
13808;DHT22;40769;51.512;5.494;2023-07-20T13:25:17;28.00;90.00
13808;DHT22;40769;51.512;5.494;2023-07-20T13:27:44;28.00;90.20
13808;DHT22;40769;51.512;5.494;2023-07-20T13:30:10;27.90;90.60
13808;DHT22;40769;51.512;5.494;2023-07-20T13:32:44;27.90;90.80
13808;DHT22;40769;51.512;5.494;2023-07-20T13:35:11;27.90;91.10
13808;DHT22;40769;51.512;5.494;2023-07-20T13:37:37;28.00;91.20
13808;DHT22;40769;51.512;5.494;2023-07-20T13:40:03;28.20;91.60
13808;DHT22;40769;51.512;5.494;2023-07-20T13:42:33;28.40;91.40
13808;DHT22;40769;51.512;5.494;2023-07-20T13:44:59;28.60;91.50
13808;DHT22;40769;51.512;5.494;2023-07-20T13:47:26;28.80;91.50
13808;DHT22;40769;51.512;5.494;2023-07-20T13:49:51;29.10;91.30
13808;DHT22;40769;51.512;5.494;2023-07-20T13:52:17;29.70;91.80
13808;DHT22;40769;51.512;5.494;2023-07-20T13:54:43;29.70;91.90
13808;DHT22;40769;51.512;5.494;2023-07-20T13:57:09;30.10;91.90
13808;DHT22;40769;51.512;5.494;2023-07-20T13:59:35;30.50;91.40
13808;DHT22;40769;51.512;5.494;2023-07-20T14:02:00;30.80;90.70
13808;DHT22;40769;51.512;5.494;2023-07-20T14:04:26;31.10;90.40
13808;DHT22;40769;51.512;5.494;2023-07-20T14:06:51;31.30;90.20
13808;DHT22;40769;51.512;5.494;2023-07-20T14:09:17;31.40;89.20
13808;DHT22;40769;51.512;5.494;2023-07-20T14:11:43;31.60;87.00
13808;DHT22;40769;51.512;5.494;2023-07-20T14:14:09;31.60;86.30
13808;DHT22;40769;51.512;5.494;2023-07-20T14:16:34;31.60;86.60
13808;DHT22;40769;51.512;5.494;2023-07-20T14:19:00;31.60;86.40
13808;DHT22;40769;51.512;5.494;2023-07-20T14:21:26;31.60;86.30
13808;DHT22;40769;51.512;5.494;2023-07-20T14:23:52;31.50;86.10
13808;DHT22;40769;51.512;5.494;2023-07-20T14:26:21;31.20;84.60
13808;DHT22;40769;51.512;5.494;2023-07-20T14:28:47;31.50;83.90
13808;DHT22;40769;51.512;5.494;2023-07-20T14:31:13;31.50;83.90
13808;DHT22;40769;51.512;5.494;2023-07-20T14:33:39;31.50;84.70
13808;DHT22;40769;51.512;5.494;2023-07-20T14:36:05;31.60;84.60
13808;DHT22;40769;51.512;5.494;2023-07-20T14:38:31;31.60;83.20
13808;DHT22;40769;51.512;5.494;2023-07-20T14:40:57;31.70;82.80
13808;DHT22;40769;51.512;5.494;2023-07-20T14:43:23;31.90;83.40
13808;DHT22;40769;51.512;5.494;2023-07-20T14:45:48;31.90;82.10
13808;DHT22;40769;51.512;5.494;2023-07-20T14:48:14;31.90;82.30
13808;DHT22;40769;51.512;5.494;2023-07-20T14:50:40;32.00;82.00
13808;DHT22;40769;51.512;5.494;2023-07-20T14:53:05;32.00;81.80
13808;DHT22;40769;51.512;5.494;2023-07-20T14:55:32;32.00;81.20
13808;DHT22;40769;51.512;5.494;2023-07-20T14:57:57;32.10;81.50
13808;DHT22;40769;51.512;5.494;2023-07-20T15:00:23;32.10;81.20
13808;DHT22;40769;51.512;5.494;2023-07-20T15:02:49;32.00;80.30
13808;DHT22;40769;51.512;5.494;2023-07-20T15:05:24;31.80;79.60
13808;DHT22;40769;51.512;5.494;2023-07-20T15:07:52;31.80;79.30
13808;DHT22;40769;51.512;5.494;2023-07-20T15:10:18;31.60;79.50
13808;DHT22;40769;51.512;5.494;2023-07-20T15:12:44;31.50;79.10
13808;DHT22;40769;51.512;5.494;2023-07-20T15:15:12;31.20;78.50
13808;DHT22;40769;51.512;5.494;2023-07-20T15:17:39;31.00;77.70
13808;DHT22;40769;51.512;5.494;2023-07-20T15:20:07;30.70;77.90
13808;DHT22;40769;51.512;5.494;2023-07-20T15:22:34;30.30;78.10
13808;DHT22;40769;51.512;5.494;2023-07-20T15:25:02;29.90;78.40
13808;DHT22;40769;51.512;5.494;2023-07-20T15:27:27;29.60;78.80
13808;DHT22;40769;51.512;5.494;2023-07-20T15:29:53;29.30;79.10
13808;DHT22;40769;51.512;5.494;2023-07-20T15:32:19;29.00;80.40
13808;DHT22;40769;51.512;5.494;2023-07-20T15:34:44;28.70;80.30
13808;DHT22;40769;51.512;5.494;2023-07-20T15:37:11;28.50;81.00
13808;DHT22;40769;51.512;5.494;2023-07-20T15:39:37;28.30;81.90
13808;DHT22;40769;51.512;5.494;2023-07-20T15:42:04;28.10;82.40
13808;DHT22;40769;51.512;5.494;2023-07-20T15:44:30;27.80;82.50
13808;DHT22;40769;51.512;5.494;2023-07-20T15:46:55;27.70;83.20